Time;durP1;ratioP1;P1;durP2;ratioP2;P2;SDS_P1;SDS_P2;PMS_P1;PMS_P2;Temp;Humidity;BMP_temperature;BMP_pressure;BME280_temperature;BME280_humidity;BME280_pressure;Samples;Min_cycle;Max_cycle;Signal;HPM_P1;HPM_P2
2023/10/18 00:02:21;;;;;;;;;11.00;9.67;;;;;16.07;68.38;99749.75;6219861;22;45266;-82
2023/10/18 00:04:46;;;;;;;;;13.33;13.33;;;;;16.08;68.32;99747.03;6194622;22;45388;-79
2023/10/18 00:07:13;;;;;;;;;13.33;12.00;;;;;16.17;68.41;99749.47;6190525;22;47156;-79
2023/10/18 00:09:45;;;;;;;;;13.00;10.00;;;;;16.04;68.51;99742.66;6191178;22;45413;-80
2023/10/18 00:12:52;;;;;;;;;13.67;12.00;;;;;16.33;68.28;99749.97;6216938;22;45341;-81
2023/10/18 00:15:18;;;;;;;;;12.33;12.00;;;;;16.08;68.38;99747.03;6219607;22;45490;-79
2023/10/18 00:17:44;;;;;;;;;10.67;10.00;;;;;16.09;68.58;99746.09;6191091;22;46964;-79
2023/10/18 00:20:16;;;;;;;;;12.67;12.00;;;;;16.08;68.66;99744.34;6192811;22;45396;-79
2023/10/18 00:22:44;;;;;;;;;8.67;8.67;;;;;16.19;68.59;99734.22;6190757;22;45318;-83
2023/10/18 00:25:16;;;;;;;;;10.00;10.00;;;;;16.20;68.53;99735.13;6187089;22;45361;-79
2023/10/18 00:27:41;;;;;;;;;11.67;10.67;;;;;16.05;68.51;99733.69;6187822;22;47153;-79
2023/10/18 00:30:07;;;;;;;;;12.33;11.33;;;;;16.07;68.24;99718.44;6216467;22;45431;-79
2023/10/18 00:32:35;;;;;;;;;12.33;10.33;;;;;16.17;68.64;99717.28;6190558;22;45752;-79
2023/10/18 00:35:12;;;;;;;;;11.00;10.67;;;;;16.01;68.39;99707.88;6219536;22;45300;-80
2023/10/18 00:37:41;;;;;;;;;11.00;11.00;;;;;16.01;68.41;99697.13;6192025;22;45979;-80
2023/10/18 00:40:09;;;;;;;;;10.67;9.67;;;;;16.06;68.41;99719.38;6219809;22;45719;-80
2023/10/18 00:42:38;;;;;;;;;11.33;11.33;;;;;15.94;68.68;99701.78;6219610;22;45357;-78
2023/10/18 00:45:08;;;;;;;;;14.67;10.33;;;;;16.03;68.52;99706.03;6191670;22;44881;-80
2023/10/18 00:47:35;;;;;;;;;11.67;11.67;;;;;16.02;68.72;99703.38;6190590;22;47365;-79
2023/10/18 00:50:02;;;;;;;;;11.00;11.00;;;;;16.06;68.82;99705.06;6190130;22;45349;-78
2023/10/18 00:52:29;;;;;;;;;9.33;9.33;;;;;15.99;68.76;99701.66;6219597;22;45396;-78
2023/10/18 00:54:55;;;;;;;;;11.00;11.00;;;;;15.93;68.66;99691.09;6217962;22;45354;-79
2023/10/18 00:57:24;;;;;;;;;12.00;11.00;;;;;15.96;68.41;99697.25;6218033;22;45316;-78
2023/10/18 00:59:52;;;;;;;;;11.67;11.67;;;;;16.00;68.80;99685.53;6189471;22;45385;-78
2023/10/18 01:02:28;;;;;;;;;8.67;8.67;;;;;16.01;68.56;99689.09;6190366;22;45451;-81
2023/10/18 01:04:54;;;;;;;;;11.00;9.00;;;;;15.99;68.46;99674.84;6190285;22;45384;-80
2023/10/18 01:07:20;;;;;;;;;9.33;9.33;;;;;15.93;69.01;99675.88;6217256;22;45335;-80
2023/10/18 01:09:50;;;;;;;;;12.00;11.00;;;;;15.99;68.82;99680.22;6191577;22;45369;-80
2023/10/18 01:12:23;;;;;;;;;11.00;11.00;;;;;16.15;68.72;99667.28;6218991;22;45721;-79
2023/10/18 01:14:49;;;;;;;;;11.33;10.00;;;;;15.94;68.58;99668.72;6192311;22;44873;-80
2023/10/18 01:17:16;;;;;;;;;12.33;11.67;;;;;15.85;68.80;99639.47;6191464;22;47185;-79
2023/10/18 01:19:43;;;;;;;;;10.00;10.00;;;;;15.88;68.80;99647.44;6219132;22;44872;-80
2023/10/18 01:22:08;;;;;;;;;11.00;10.33;;;;;15.90;68.94;99645.59;6219032;22;45357;-80
2023/10/18 01:24:38;;;;;;;;;13.33;12.33;;;;;15.90;68.70;99637.56;6193058;22;44837;-80
2023/10/18 01:27:05;;;;;;;;;12.00;12.00;;;;;15.88;68.31;99634.03;6218841;22;45455;-80
2023/10/18 01:29:31;;;;;;;;;10.00;10.00;;;;;15.86;68.69;99634.06;6220745;22;45396;-81
2023/10/18 01:31:58;;;;;;;;;9.67;9.67;;;;;15.82;68.53;99629.69;6219622;22;45344;-81
2023/10/18 01:34:25;;;;;;;;;11.67;11.67;;;;;15.86;68.28;99630.50;6220152;22;45467;-79
2023/10/18 01:36:52;;;;;;;;;11.67;9.67;;;;;15.87;68.75;99640.28;6217937;22;45305;-81
2023/10/18 01:39:18;;;;;;;;;11.33;9.00;;;;;15.86;68.90;99638.56;6192566;22;45372;-80
2023/10/18 01:41:48;;;;;;;;;9.33;9.00;;;;;16.03;68.53;99636.28;6219568;22;45345;-80
2023/10/18 01:44:27;;;;;;;;;10.67;8.67;;;;;15.83;68.79;99626.09;6220677;22;45318;-80
2023/10/18 01:47:03;;;;;;;;;8.67;8.67;;;;;15.86;68.32;99615.28;6219897;22;45274;-80
2023/10/18 01:49:31;;;;;;;;;13.00;11.33;;;;;15.95;68.53;99611.47;6219779;22;45315;-80
2023/10/18 01:51:59;;;;;;;;;9.67;9.67;;;;;15.92;68.79;99607.09;6164406;23;45359;-79
2023/10/18 01:54:27;;;;;;;;;10.33;10.33;;;;;15.84;68.69;99608.22;6159309;23;44939;-79
2023/10/18 01:56:57;;;;;;;;;11.00;9.33;;;;;16.01;68.57;99608.63;6160966;23;46901;-79
2023/10/18 01:59:30;;;;;;;;;13.33;11.00;;;;;15.85;68.57;99592.06;6189232;22;45400;-79
2023/10/18 02:01:59;;;;;;;;;9.33;8.67;;;;;15.87;68.30;99594.72;6162273;23;45564;-79
2023/10/18 02:04:36;;;;;;;;;15.00;12.00;;;;;15.86;68.31;99593.84;6189662;22;45310;-79
2023/10/18 02:07:06;;;;;;;;;9.67;9.67;;;;;15.80;68.46;99584.16;6162205;23;47180;-79
2023/10/18 02:10:21;;;;;;;;;10.00;10.00;;;;;15.79;68.47;99577.03;6178792;22;44861;-81
2023/10/18 02:12:27;;;;;;;;;9.67;8.67;;;;;15.80;68.69;99592.19;6186216;22;44805;-80
2023/10/18 03:49:33;;;;;;;;;12.00;11.00;;;;;15.92;68.42;99483.75;6269449;22;44736;-81
2023/10/18 06:05:21;;;;;;;;;15.67;11.67;;;;;15.89;77.86;99303.31;6137315;22;45748;-79
2023/10/18 06:07:46;;;;;;;;;11.33;10.33;;;;;15.73;77.86;99309.13;6225812;22;45417;-80
2023/10/18 06:10:16;;;;;;;;;11.67;10.33;;;;;15.74;77.78;99302.88;6226147;22;45321;-80
2023/10/18 06:12:46;;;;;;;;;10.67;10.67;;;;;15.88;77.86;99320.34;6248413;22;46826;-80
2023/10/18 06:15:19;;;;;;;;;14.67;11.33;;;;;16.02;78.03;99336.88;6252792;22;44788;-82
2023/10/18 06:17:53;;;;;;;;;10.00;10.00;;;;;15.86;78.07;99336.47;6252077;22;45423;-81
2023/10/18 06:20:29;;;;;;;;;12.33;12.00;;;;;15.87;77.87;99305.16;6252383;22;45392;-81
2023/10/18 06:25:48;;;;;;;;;13.00;11.00;;;;;15.90;77.85;99323.84;6251520;22;45379;-80
2023/10/18 06:28:21;;;;;;;;;10.33;10.33;;;;;15.82;77.85;99297.28;6221106;22;44792;-81
2023/10/18 06:30:52;;;;;;;;;15.67;12.00;;;;;16.04;77.95;99304.63;6250369;22;45228;-81
2023/10/18 06:33:21;;;;;;;;;12.00;12.00;;;;;15.95;77.90;99297.75;6224054;22;46899;-80
2023/10/18 06:35:52;;;;;;;;;8.00;8.00;;;;;16.08;77.98;99296.47;6250465;22;45645;-81
2023/10/18 06:38:18;;;;;;;;;9.00;9.00;;;;;16.05;78.18;99301.03;6249718;22;45369;-82
2023/10/18 06:40:50;;;;;;;;;16.33;11.00;;;;;16.02;78.04;99296.66;6221874;22;45300;-81
2023/10/18 06:43:20;;;;;;;;;12.00;12.00;;;;;16.06;78.46;99294.72;6223832;22;45249;-82
2023/10/18 06:45:50;;;;;;;;;11.00;11.00;;;;;16.10;78.10;99285.69;6224442;22;45381;-83
2023/10/18 06:48:28;;;;;;;;;14.67;11.33;;;;;16.12;78.30;99290.06;6236121;22;45373;-81
2023/10/18 06:50:55;;;;;;;;;11.67;11.67;;;;;15.93;78.52;99260.25;6229657;22;44946;-80
2023/10/18 06:53:21;;;;;;;;;10.00;10.00;;;;;15.80;78.33;99266.97;6251850;22;46692;-81
2023/10/18 06:55:58;;;;;;;;;11.67;11.67;;;;;15.88;78.54;99274.75;6249221;22;44811;-81
2023/10/18 07:00:53;;;;;;;;;10.67;10.67;;;;;16.08;77.81;99277.69;6250666;22;44794;-83
2023/10/18 07:03:34;;;;;;;;;15.00;12.00;;;;;16.29;77.58;99243.91;6219793;22;47437;-81
2023/10/18 07:06:18;;;;;;;;;14.00;14.00;;;;;16.11;78.09;99242.72;6220559;22;45487;-81
2023/10/18 07:08:49;;;;;;;;;14.33;12.67;;;;;16.02;78.20;99212.63;6247777;22;45366;-82
2023/10/18 07:11:18;;;;;;;;;13.33;12.00;;;;;16.06;78.11;99217.88;6223678;22;45839;-83
2023/10/18 07:13:47;;;;;;;;;16.00;16.00;;;;;16.35;77.66;99213.31;6219868;22;47027;-81
2023/10/18 07:16:38;;;;;;;;;12.33;12.33;;;;;16.39;77.78;99223.88;6247426;22;45329;-81
2023/10/18 07:19:06;;;;;;;;;13.67;11.67;;;;;16.30;77.35;99234.06;6221847;22;45433;-82
2023/10/18 07:21:32;;;;;;;;;18.00;14.67;;;;;16.28;77.63;99234.13;6253730;22;45440;-81
2023/10/18 07:24:10;;;;;;;;;15.00;13.67;;;;;16.32;77.25;99224.16;6151039;22;46973;-80
2023/10/18 07:26:49;;;;;;;;;17.00;14.67;;;;;16.70;76.97;99238.06;6219468;22;44808;-82
2023/10/18 07:41:26;;;;;;;;;17.67;13.33;;;;;16.92;76.54;99252.50;6254024;22;45381;-83
2023/10/18 07:43:58;;;;;;;;;13.00;12.00;;;;;16.74;76.49;99234.34;6254478;22;45312;-81
2023/10/18 07:46:47;;;;;;;;;18.00;15.67;;;;;16.97;75.60;99220.13;6226938;22;45371;-80
2023/10/18 07:49:14;;;;;;;;;14.67;14.00;;;;;16.85;76.03;99208.03;6227057;22;45677;-81
2023/10/18 07:55:02;;;;;;;;;8.67;8.67;;;;;17.22;75.63;99217.41;6255842;22;45248;-80
2023/10/18 07:57:46;;;;;;;;;14.33;14.33;;;;;17.27;74.53;99180.50;6202301;22;46733;-82
2023/10/18 08:03:23;;;;;;;;;12.00;11.33;;;;;17.44;73.49;99170.91;6243650;22;45423;-81
2023/10/18 08:06:26;;;;;;;;;7.67;6.67;;;;;17.53;73.66;99197.41;6256857;22;45200;-80
2023/10/18 08:09:48;;;;;;;;;13.33;13.33;;;;;17.84;73.49;99177.41;6126655;23;45153;-82
2023/10/18 08:12:33;;;;;;;;;13.33;13.33;;;;;17.62;72.68;99137.03;6039477;23;45449;-81
2023/10/18 09:53:31;;;;;;;;;11.00;11.00;;;;;19.92;68.62;99056.56;6229389;22;46087;-80
2023/10/18 09:56:00;;;;;;;;;9.33;8.00;;;;;19.79;69.06;99050.03;6254615;22;45325;-82
2023/10/18 09:58:33;;;;;;;;;11.00;11.00;;;;;19.87;69.57;99068.53;6194813;22;47191;-81
2023/10/18 10:01:13;;;;;;;;;8.67;7.67;;;;;19.73;69.79;99053.94;6221513;22;44839;-82
2023/10/18 10:04:09;;;;;;;;;8.00;8.00;;;;;19.82;69.93;99057.13;6251067;22;44926;-83
2023/10/18 10:11:59;;;;;;;;;8.00;7.00;;;;;19.38;71.37;99034.06;6249197;22;44857;-84
2023/10/18 10:14:30;;;;;;;;;13.00;9.00;;;;;19.35;71.56;99009.94;6228828;22;45192;-85
2023/10/18 10:17:28;;;;;;;;;11.67;10.67;;;;;19.43;71.81;99004.19;6231558;22;44823;-84
2023/10/18 10:22:30;;;;;;;;;11.67;9.00;;;;;19.53;72.11;99022.53;6193252;22;44776;-85
2023/10/18 10:25:00;;;;;;;;;9.00;8.00;;;;;19.50;71.76;99014.59;6169210;22;45060;-85
2023/10/18 10:27:27;;;;;;;;;11.00;11.00;;;;;19.73;71.58;99043.16;6193786;22;45517;-85
2023/10/18 10:30:03;;;;;;;;;9.00;9.00;;;;;20.02;70.94;99034.47;6168370;22;47381;-85
2023/10/18 10:39:30;;;;;;;;;13.00;8.33;;;;;20.38;70.25;99037.09;6164407;23;45342;-84
2023/10/18 10:42:08;;;;;;;;;12.00;9.67;;;;;20.04;70.83;98992.13;6165406;23;45818;-85
2023/10/18 10:45:07;;;;;;;;;7.00;7.00;;;;;20.51;70.50;99010.28;6139430;23;45290;-85
2023/10/18 10:48:11;;;;;;;;;;;;;;;;;;;;;
2023/10/18 11:07:28;;;;;;;;;6.00;6.00;;;;;20.18;73.16;98982.31;6164553;23;45239;-85
2023/10/18 11:13:36;;;;;;;;;8.33;8.33;;;;;20.11;75.25;98942.25;6073927;23;44816;-83
2023/10/18 11:25:20;;;;;;;;;8.00;8.00;;;;;20.38;76.44;98961.50;6122799;22;46862;31
2023/10/18 11:28:19;;;;;;;;;13.33;8.33;;;;;20.22;78.08;98949.75;6125542;22;44972;-82
2023/10/18 11:30:49;;;;;;;;;9.00;9.00;;;;;19.92;78.40;98926.19;6259047;22;45401;-82
2023/10/18 11:33:18;;;;;;;;;13.00;12.00;;;;;20.19;78.78;98935.47;6258312;22;44825;-80
2023/10/18 11:35:54;;;;;;;;;8.00;8.00;;;;;20.17;79.07;98931.97;6231248;22;44839;-81
2023/10/18 11:39:07;;;;;;;;;9.00;9.00;;;;;20.32;79.31;98924.88;6227691;22;45198;-83
2023/10/18 11:41:42;;;;;;;;;11.67;10.00;;;;;20.08;80.04;98888.47;6224534;22;45589;-82
2023/10/18 11:44:31;;;;;;;;;14.67;11.67;;;;;19.97;81.74;98881.78;6227990;22;44839;-82
2023/10/18 11:47:11;;;;;;;;;14.00;14.00;;;;;20.23;82.38;98898.38;6178927;22;45466;-82
2023/10/18 11:49:39;;;;;;;;;10.33;10.33;;;;;20.13;83.22;98889.06;6193738;22;44807;-82
2023/10/18 11:52:17;;;;;;;;;11.00;11.00;;;;;19.96;84.33;98885.47;6196367;22;46694;-82
2023/10/18 11:54:52;;;;;;;;;12.67;12.67;;;;;20.05;84.01;98873.28;6221788;22;45384;-82
2023/10/18 11:57:48;;;;;;;;;12.00;10.67;;;;;20.19;84.27;98880.63;6195338;22;44846;-82
2023/10/18 12:00:56;;;;;;;;;14.00;12.00;;;;;20.24;85.70;98881.25;6230691;22;44926;-82
2023/10/18 12:04:00;;;;;;;;;;;;;;;;;;;;;
2023/10/18 12:06:29;;;;;;;;;12.00;10.67;;;;;19.63;88.30;98842.25;6223173;22;72194;-83
2023/10/18 12:11:41;;;;;;;;;16.67;12.33;;;;;19.74;89.54;98814.75;6224081;22;44754;-82
2023/10/18 12:17:45;;;;;;;;;13.00;12.33;;;;;19.74;92.50;98837.19;6214994;22;44822;-81
2023/10/18 12:20:15;;;;;;;;;13.67;12.67;;;;;19.84;93.89;98821.38;6223760;22;45335;-82
2023/10/18 12:22:44;;;;;;;;;13.00;13.00;;;;;19.80;94.87;98829.72;6196784;22;44892;-81
2023/10/18 12:25:38;;;;;;;;;11.67;11.67;;;;;20.08;93.11;98827.25;6199226;22;47439;-82
2023/10/18 12:28:27;;;;;;;;;14.00;12.33;;;;;20.20;92.98;98828.41;6191005;22;45692;-82
2023/10/18 12:34:20;;;;;;;;;11.33;11.33;;;;;20.30;92.58;98808.03;6029570;23;44911;-83
2023/10/18 12:36:49;;;;;;;;;16.00;16.00;;;;;20.15;93.09;98777.34;6025095;23;47250;-85
2023/10/18 12:39:25;;;;;;;;;9.00;8.67;;;;;20.32;92.40;98784.50;6073741;23;44756;-81
2023/10/18 12:41:57;;;;;;;;;10.00;9.67;;;;;20.40;92.42;98778.69;6074974;23;45409;-83
2023/10/18 12:45:05;;;;;;;;;;;;;;;;;;;;;
2023/10/18 12:47:51;;;;;;;;;11.33;8.00;;;;;20.93;90.96;98788.16;6079821;23;74501;-82
2023/10/18 12:51:17;;;;;;;;;;;;;;;;;;;;;
2023/10/18 13:17:19;;;;;;;;;8.00;8.00;;;;;19.42;100.00;98697.81;6224742;22;46493;-82
2023/10/18 13:23:09;;;;;;;;;12.33;12.33;;;;;19.49;100.00;98699.22;6165745;22;45563;-84
2023/10/18 13:25:54;;;;;;;;;14.33;13.67;;;;;19.54;100.00;98687.22;6075066;23;45537;-80
2023/10/18 13:28:51;;;;;;;;;14.67;14.67;;;;;19.55;100.00;98680.00;6074709;23;45420;-80
2023/10/18 13:31:32;;;;;;;;;16.67;12.33;;;;;19.29;100.00;98647.28;6078701;23;46733;-86
2023/10/18 13:34:18;;;;;;;;;13.00;12.00;;;;;19.41;100.00;98645.75;6052351;23;45537;-86
2023/10/18 13:36:48;;;;;;;;;15.33;15.33;;;;;19.49;100.00;98664.16;6075051;22;45247;-87
2023/10/18 13:39:23;;;;;;;;;12.00;9.00;;;;;19.53;100.00;98654.94;6197666;22;45601;-84
2023/10/18 13:42:11;;;;;;;;;11.33;10.00;;;;;19.63;100.00;98650.78;6201301;23;47243;-86
2023/10/18 13:44:43;;;;;;;;;11.00;10.67;;;;;19.43;100.00;98621.38;6170768;22;45443;-84
2023/10/18 13:47:13;;;;;;;;;15.00;11.67;;;;;19.26;100.00;98600.78;6196885;23;44897;-86
2023/10/18 13:50:31;;;;;;;;;;;;;;;;;;;;;
2023/10/18 13:52:57;;;;;;;;;14.00;12.67;;;;;19.53;100.00;98628.00;6188455;23;74496;-84
2023/10/18 13:55:23;;;;;;;;;15.00;13.00;;;;;19.41;100.00;98604.41;6196559;22;44744;-88
2023/10/18 13:57:59;;;;;;;;;8.00;8.00;;;;;19.69;100.00;98612.69;6146016;23;45267;-88
2023/10/18 14:00:27;;;;;;;;;12.00;12.00;;;;;19.40;100.00;98598.16;6175941;22;45098;-87
2023/10/18 14:03:07;;;;;;;;;11.00;8.67;;;;;19.83;100.00;98611.06;6198052;23;45114;-86
2023/10/18 14:05:50;;;;;;;;;10.67;9.67;;;;;19.89;100.00;98618.78;6170187;22;44955;-87
2023/10/18 14:08:21;;;;;;;;;12.33;10.67;;;;;19.73;100.00;98579.25;6199410;23;44938;-86
2023/10/18 14:20:10;;;;;;;;;12.67;10.00;;;;;20.00;100.00;98594.75;6254073;22;45812;-85
2023/10/18 14:26:24;;;;;;;;;7.33;7.33;;;;;19.84;100.00;98566.94;5992454;23;46325;-85
2023/10/18 14:28:55;;;;;;;;;12.33;9.00;;;;;19.93;100.00;98563.69;5971788;23;44785;-87
2023/10/18 14:41:44;;;;;;;;;8.00;7.00;;;;;20.19;100.00;98552.19;6260920;22;44775;-82
2023/10/18 14:44:20;;;;;;;;;5.00;5.00;;;;;20.46;100.00;98574.91;6228845;22;44855;-81
2023/10/18 14:46:58;;;;;;;;;6.33;5.00;;;;;20.55;100.00;98572.53;6230139;22;47251;-82
2023/10/18 14:49:28;;;;;;;;;9.00;8.00;;;;;20.35;100.00;98567.47;6233684;22;44710;-82
2023/10/18 14:56:40;;;;;;;;;5.67;5.67;;;;;20.63;100.00;98565.81;6135634;23;45856;-82
2023/10/18 15:05:18;;;;;;;;;8.00;6.00;;;;;20.57;100.00;98527.38;6230219;22;45283;-83
2023/10/18 15:07:59;;;;;;;;;6.50;6.50;;;;;20.53;100.00;98515.03;6063048;23;45167;-81
2023/10/18 15:10:24;;;;;;;;;6.00;6.00;;;;;20.43;100.00;98524.69;6061248;23;45348;-81
2023/10/18 15:12:54;;;;;;;;;8.33;8.33;;;;;20.79;100.00;98545.00;6050419;23;45338;-80
2023/10/18 15:15:48;;;;;;;;;8.00;8.00;;;;;20.81;100.00;98545.75;6043656;23;45360;-79
2023/10/18 15:18:59;;;;;;;;;7.00;7.00;;;;;20.87;100.00;98542.66;6053768;23;45360;-80
2023/10/18 15:21:32;;;;;;;;;5.67;5.67;;;;;20.49;100.00;98508.09;6063913;23;47143;-82
2023/10/18 15:24:02;;;;;;;;;7.00;7.00;;;;;20.63;100.00;98495.59;6045142;23;45449;-80
2023/10/18 15:26:29;;;;;;;;;8.00;7.67;;;;;20.73;100.00;98530.03;6056556;23;45511;-81
2023/10/18 15:28:56;;;;;;;;;7.00;7.00;;;;;20.61;100.00;98519.13;6061894;23;44895;-82
2023/10/18 15:31:22;;;;;;;;;7.00;7.00;;;;;20.61;100.00;98516.44;6046711;23;45510;-82
2023/10/18 15:33:56;;;;;;;;;7.00;6.00;;;;;20.83;100.00;98533.03;6051654;23;44852;-85
2023/10/18 15:36:23;;;;;;;;;6.75;6.75;;;;;20.84;100.00;98520.38;6050614;23;45669;-80
2023/10/18 15:38:53;;;;;;;;;6.00;6.00;;;;;20.81;100.00;98531.41;6045363;23;45463;-81
2023/10/18 15:41:20;;;;;;;;;6.33;5.00;;;;;20.93;100.00;98525.19;6077518;23;46527;-86
2023/10/18 15:47:08;;;;;;;;;6.00;6.00;;;;;20.98;100.00;98523.06;6216249;22;44848;-80
2023/10/18 15:49:34;;;;;;;;;5.25;5.25;;;;;21.09;100.00;98525.94;6189579;22;45309;-80
2023/10/18 15:52:01;;;;;;;;;6.25;6.25;;;;;21.02;100.00;98523.75;6217297;22;45982;-80
2023/10/18 15:54:26;;;;;;;;;6.75;5.50;;;;;21.11;100.00;98536.66;6189535;22;45329;-80
2023/10/18 15:56:55;;;;;;;;;3.25;3.25;;;;;21.09;100.00;98533.19;6215369;22;45423;-82
2023/10/18 16:05:51;;;;;;;;;8.00;5.00;;;;;21.21;100.00;98510.78;6062862;23;45356;-82
2023/10/18 16:08:17;;;;;;;;;6.00;5.00;;;;;20.98;100.00;98506.84;6041252;23;45811;-81
2023/10/18 16:10:43;;;;;;;;;4.00;4.00;;;;;21.15;100.00;98530.09;6041641;23;45241;-83
2023/10/18 16:13:09;;;;;;;;;9.50;6.00;;;;;21.13;100.00;98516.69;6040485;23;46953;-81
2023/10/18 16:15:38;;;;;;;;;5.00;5.00;;;;;21.19;100.00;98526.22;6043738;23;45236;-80
2023/10/18 16:18:05;;;;;;;;;6.25;6.00;;;;;21.21;100.00;98521.59;6067490;23;45491;-80
2023/10/18 16:20:34;;;;;;;;;6.25;6.00;;;;;21.47;100.00;98529.84;6039963;23;45435;-81
2023/10/18 16:23:03;;;;;;;;;5.00;5.00;;;;;21.27;100.00;98513.06;6041548;23;47570;-80
2023/10/18 16:25:29;;;;;;;;;5.50;4.75;;;;;21.34;100.00;98525.22;6041981;23;45763;-79
2023/10/18 16:27:54;;;;;;;;;8.25;5.00;;;;;21.34;100.00;98527.91;6067446;23;45363;-80
2023/10/18 16:30:21;;;;;;;;;7.33;6.00;;;;;21.36;100.00;98530.53;6042292;23;45344;-80
2023/10/18 16:32:46;;;;;;;;;4.00;4.00;;;;;21.31;100.00;98529.94;6044147;23;47819;-80
2023/10/18 16:35:20;;;;;;;;;3.75;3.75;;;;;21.51;100.00;98531.38;6045118;23;45585;-81
2023/10/18 16:37:46;;;;;;;;;6.75;4.50;;;;;21.37;100.00;98540.38;6043344;23;45459;-80
2023/10/18 16:40:16;;;;;;;;;4.00;4.00;;;;;21.36;100.00;98536.78;6122010;23;45866;-81
2023/10/18 16:42:46;;;;;;;;;4.00;4.00;;;;;21.47;100.00;98540.66;6198677;22;48136;-81
2023/10/18 16:45:15;;;;;;;;;5.00;5.00;;;;;21.40;100.00;98550.13;6221589;22;45387;-81
2023/10/18 16:47:44;;;;;;;;;4.33;4.00;;;;;21.33;100.00;98549.63;6219544;22;45330;-81
2023/10/18 16:50:16;;;;;;;;;3.00;3.00;;;;;21.32;100.00;98543.38;6247943;22;44837;-80
2023/10/18 16:52:59;;;;;;;;;5.33;5.33;;;;;21.50;100.00;98545.88;6222818;22;47389;-80
2023/10/18 16:55:27;;;;;;;;;5.00;5.00;;;;;21.33;100.00;98541.53;6247813;22;45384;-79
2023/10/18 16:57:53;;;;;;;;;4.00;4.00;;;;;21.30;100.00;98533.63;6220712;22;45428;-80
2023/10/18 17:00:22;;;;;;;;;3.00;3.00;;;;;21.50;100.00;98545.88;6246543;22;45253;-79
2023/10/18 17:02:49;;;;;;;;;5.00;3.67;;;;;21.27;100.00;98533.81;6220129;22;46953;-79
2023/10/18 17:05:14;;;;;;;;;3.00;3.00;;;;;21.29;100.00;98542.69;6213720;22;45359;-79
2023/10/18 17:07:41;;;;;;;;;4.25;4.25;;;;;21.35;100.00;98539.63;6244593;22;45258;-80
2023/10/18 17:10:19;;;;;;;;;4.00;4.00;;;;;21.42;100.00;98537.38;6220636;22;45842;-80
2023/10/18 17:12:47;;;;;;;;;3.50;3.50;;;;;21.42;100.00;98549.03;6195256;22;46676;-79
2023/10/18 17:15:18;;;;;;;;;3.00;3.00;;;;;21.29;100.00;98535.47;6221721;22;45774;-81
2023/10/18 17:18:04;;;;;;;;;;;;;;;;;;;;;
2023/10/18 17:20:37;;;;;;;;;2.25;2.25;;;;;21.28;100.00;98544.53;6249689;22;65800;-80
2023/10/18 17:23:03;;;;;;;;;3.00;3.00;;;;;21.29;100.00;98542.69;6249319;22;45420;-81
2023/10/18 17:25:30;;;;;;;;;2.00;2.00;;;;;21.31;100.00;98551.56;6248434;22;45599;-81
2023/10/18 17:27:55;;;;;;;;;2.00;2.00;;;;;21.28;100.00;98552.66;6247741;22;45345;-79
2023/10/18 17:30:24;;;;;;;;;3.75;3.75;;;;;21.27;100.00;98566.25;6248131;22;44837;-80
2023/10/18 17:32:49;;;;;;;;;2.00;2.00;;;;;21.28;100.00;98563.47;6221892;22;47575;-80
2023/10/18 17:35:16;;;;;;;;;2.00;2.00;;;;;21.23;100.00;98552.09;6221140;22;45348;-80
2023/10/18 17:37:44;;;;;;;;;2.00;2.00;;;;;21.37;100.00;98568.28;6219111;22;45332;-80
2023/10/18 17:40:20;;;;;;;;;2.00;2.00;;;;;21.50;100.00;98567.50;6245343;22;45397;-81
2023/10/18 17:42:48;;;;;;;;;4.25;3.25;;;;;21.33;100.00;98561.34;6245528;22;47382;-80
2023/10/18 17:45:23;;;;;;;;;2.00;2.00;;;;;21.36;100.00;98569.25;6247333;22;45313;-80
2023/10/18 17:47:50;;;;;;;;;1.00;1.00;;;;;21.31;100.00;98567.78;6220603;22;45518;-81
2023/10/18 17:50:19;;;;;;;;;2.00;2.00;;;;;21.29;100.00;98578.72;6247323;22;45377;-79
2023/10/18 17:52:46;;;;;;;;;1.75;1.25;;;;;21.33;100.00;98576.66;6218503;22;47526;-80
2023/10/18 17:55:16;;;;;;;;;2.50;2.25;;;;;21.29;100.00;98567.91;6241085;22;45424;-80
2023/10/18 18:01:26;;;;;;;;;1.00;1.00;;;;;21.42;100.00;98586.91;6246816;22;45371;-80
2023/10/18 18:03:52;;;;;;;;;2.75;2.75;;;;;21.27;100.00;98585.19;6242719;22;46921;-82
2023/10/18 18:06:20;;;;;;;;;1.25;1.00;;;;;21.23;100.00;98576.44;6268941;22;44705;-82
2023/10/18 18:08:45;;;;;;;;;1.00;1.00;;;;;21.21;100.00;98597.28;6242513;22;44885;-83
2023/10/18 18:11:11;;;;;;;;;1.00;1.00;;;;;21.12;100.00;98592.44;6241687;22;44753;-82
2023/10/18 18:13:38;;;;;;;;;2.00;1.00;;;;;21.07;100.00;98600.00;6241851;22;46980;-82
2023/10/18 18:16:08;;;;;;;;;0.75;0.75;;;;;20.98;100.00;98591.47;6266172;22;44857;-83
2023/10/18 18:18:34;;;;;;;;;1.00;1.00;;;;;21.04;100.00;98592.06;6242952;22;44845;-82
2023/10/18 18:20:59;;;;;;;;;1.00;1.00;;;;;21.03;100.00;98590.34;6269433;22;44899;-82
2023/10/18 18:23:51;;;;;;;;;;;;;;;;;;;;;
2023/10/18 18:27:19;;;;;;;;;2.50;2.50;;;;;21.33;100.00;98607.31;6269577;22;72210;-82
2023/10/18 18:29:48;;;;;;;;;2.00;2.00;;;;;21.28;100.00;98612.13;6236470;22;44915;-81
2023/10/18 18:32:14;;;;;;;;;1.00;1.00;;;;;21.10;100.00;98586.28;6236175;22;44817;-81
2023/10/18 18:34:40;;;;;;;;;1.00;1.00;;;;;21.04;100.00;98592.06;6225831;22;47161;-81
2023/10/18 18:37:05;;;;;;;;;1.75;1.75;;;;;20.98;100.00;98605.00;6216308;22;45242;-81
2023/10/18 18:39:33;;;;;;;;;2.00;2.00;;;;;20.92;100.00;98602.66;6216970;22;44741;-81
2023/10/18 18:42:00;;;;;;;;;0.00;0.00;;;;;20.83;100.00;98611.38;6190140;22;45489;-85
2023/10/18 18:44:25;;;;;;;;;2.25;0.75;;;;;20.74;100.00;98618.22;6190206;22;48134;-86
2023/10/18 18:46:50;;;;;;;;;2.00;1.50;;;;;20.67;100.00;98624.09;6190112;22;45444;-86
2023/10/18 18:49:16;;;;;;;;;1.00;1.00;;;;;20.64;100.00;98632.38;6217334;22;45896;-86
2023/10/18 18:51:42;;;;;;;;;1.00;1.00;;;;;20.61;100.00;98633.44;6216760;22;45300;-85
2023/10/18 18:54:07;;;;;;;;;1.00;0.25;;;;;20.61;100.00;98632.56;6191304;22;47011;-84
2023/10/18 18:56:33;;;;;;;;;1.25;1.25;;;;;20.64;100.00;98632.38;6191058;22;44871;-85
2023/10/18 18:58:59;;;;;;;;;0.75;0.75;;;;;20.55;100.00;98634.63;6218778;22;45240;-86
2023/10/18 19:01:25;;;;;;;;;2.00;2.00;;;;;20.50;100.00;98639.47;6219852;22;45277;-84
2023/10/18 19:03:52;;;;;;;;;0.00;0.00;;;;;20.42;100.00;98638.16;6250265;22;45274;-86
2023/10/18 19:06:17;;;;;;;;;1.75;1.00;;;;;20.30;100.00;98634.34;6217143;22;45473;-86
2023/10/18 19:08:43;;;;;;;;;1.00;1.00;;;;;20.15;100.00;98630.75;6247793;22;45346;-84
2023/10/18 19:11:25;;;;;;;;;2.00;1.00;;;;;20.29;100.00;98635.34;6222640;22;45859;-86
2023/10/18 19:25:16;;;;;;;;;0.50;0.50;;;;;19.91;100.00;98642.00;6129638;23;45289;-82
2023/10/18 19:28:06;;;;;;;;;2.00;1.00;;;;;19.82;100.00;98633.59;6129090;23;45332;-82
2023/10/18 19:38:33;;;;;;;;;;;;;;;;;;;;;
2023/10/18 19:44:46;;;;;;;;;;;;;;;;;;;;;
2023/10/18 19:47:39;;;;;;;;;1.75;1.75;;;;;19.85;100.00;98649.59;6030185;23;67839;-82
2023/10/18 19:50:34;;;;;;;;;1.00;1.00;;;;;19.87;100.00;98661.16;6087068;23;45317;-82
2023/10/18 19:54:19;;;;;;;;;2.00;0.25;;;;;19.92;100.00;98656.41;6128313;23;46883;-82
2023/10/18 20:08:42;;;;;;;;;0.00;0.00;;;;;20.14;100.00;98689.25;5955698;23;45608;-82
2023/10/18 20:33:27;;;;;;;;;2.00;1.50;;;;;19.50;100.00;98690.19;5844148;24;44960;-82
2023/10/18 20:44:16;;;;;;;;;2.00;1.00;;;;;19.48;100.00;98700.19;6247366;22;46293;-81
2023/10/18 20:50:43;;;;;;;;;2.00;2.00;;;;;19.79;100.00;98704.75;6128256;23;44722;-82
2023/10/18 21:03:54;;;;;;;;;2.75;0.50;;;;;19.81;100.00;98691.19;6084740;23;44846;-82
2023/10/18 21:10:55;;;;;;;;;;;;;;;;;;;;;
2023/10/18 21:14:50;;;;;;;;;1.25;1.25;;;;;20.11;100.00;98720.94;6005359;23;74577;-81
2023/10/18 21:17:04;;;;;;;;;2.00;1.25;;;;;20.15;100.00;98733.31;6000798;23;45986;-82
2023/10/18 21:25:59;;;;;;;;;1.75;1.00;;;;;19.85;100.00;98684.66;6094605;23;44907;-82
2023/10/18 21:28:30;;;;;;;;;2.25;1.00;;;;;20.17;100.00;98707.97;6129351;23;45495;-82
2023/10/18 21:34:10;;;;;;;;;2.50;1.00;;;;;19.96;100.00;98703.81;6125745;23;45249;-82
2023/10/18 21:36:54;;;;;;;;;2.25;1.00;;;;;20.19;100.00;98707.88;6129311;23;45384;-82
2023/10/18 21:39:27;;;;;;;;;2.00;1.00;;;;;20.07;100.00;98692.41;6128486;23;45385;-82